Tiempo atmosférico en la estación meteorológica de Tejeda, Cruz de Tejeda, Las Palmas (1514 m.)



Fecha
DESCASC
Temp. máxima en grados centígrados (hora)
DESCASC
Temp. mínima en grados centígrados (hora)
DESCASC
Temp. media en grados centígrados
DESCASC
Racha de viento máxima en m/sg (hora)
DESCASC
Velocidad máxima media en intervalos de 10 minutos(hora)
DESCASC
Precipitaciones diarias en mm
DESCASC
Precipitaciones de 00:00 a 06:00 en mm
DESCASC
Precipitaciones de 06:00 a 12:00 en mm
DESCASC
Precipitaciones de 12:00 a 18:00 en mm
DESCASC
Precipitaciones de 18:00 a 24:00 en mm
DESCASC
24-05-2020 29.8 (16:50) 15.5 (05:20) 22.6 9.44 (08:40) 4.44 (08:30) -- -- -- -- --
23-05-2020 24.8 (15:40) 16.2 (03:20) 20.5 17.5 (16:50) 7.78 (00:50) -- -- -- -- --
22-05-2020 20.9 (17:30) 13.6 (02:40) 17.3 12.22 (05:50) 8.06 (05:10) -- -- -- -- --
21-05-2020 23.8 (17:20) 10.3 (00:00) 17 9.72 (01:20) 6.67 (06:20) -- -- -- -- --
20-05-2020 17.2 (13:00) 9.6 (00:00) 13.4 10 (19:20) 6.39 (07:30) -- -- -- -- --
19-05-2020 20.9 (19:00) 11.5 (00:00) 16.2 5.83 (12:30) 3.89 (23:30) -- -- -- -- --
18-05-2020 14.3 (23:59) 5.7 (00:00) 10 9.17 (02:30) 5.28 (07:20) -- -- -- -- --
17-05-2020 9.1 (15:30) 5.2 (00:00) 7.2 13.89 (01:30) 6.67 (00:40) -- -- -- -- --
16-05-2020 13.3 (13:50) 4.7 (00:00) 9 12.22 (22:10) 5.83 (22:10) -- -- -- -- --
15-05-2020 10.1 (17:00) 4.5 (00:00) 7.3 10.83 (22:50) 3.61 (23:10) -- -- -- -- --
14-05-2020 14 (15:30) 5.5 (00:00) 9.8 11.39 (01:50) 6.11 (02:00) -- -- -- -- --
13-05-2020 15.1 (13:40) 6.3 (00:00) 10.7 12.78 (06:40) 5.83 (11:30) -- -- -- -- --
12-05-2020 13.5 (15:40) 6.1 (00:00) 9.8 12.78 (00:30) 6.39 (00:20) -- -- -- -- --
11-05-2020 18.7 (14:20) 8.2 (00:00) 13.5 14.72 (23:50) 6.67 (23:50) -- -- -- -- --
10-05-2020 18.2 (16:30) 7.1 (00:00) 12.7 15 (20:20) 6.67 (21:30) -- -- -- -- --
09-05-2020 17.2 (11:50) 8.1 (00:00) 12.7 10 (23:59) 4.72 (05:40) -- -- -- -- --
08-05-2020 19.3 (18:20) 6.8 (00:00) 13 10.56 (00:50) 6.11 (00:10) -- -- -- -- --
07-05-2020 15.5 (18:50) 6.3 (00:00) 10.9 10.28 (23:59) 5.83 (23:59) -- -- -- -- --
06-05-2020 16.9 (09:40) 7.3 (00:00) 12.1 5.83 (18:30) 3.33 (19:40) -- -- -- -- --
05-05-2020 18.6 (15:30) 7.6 (00:00) 13.1 5.28 (00:10) 3.06 (00:10) -- -- -- -- --
04-05-2020 16.9 (15:40) 6.8 (00:00) 11.8 9.72 (01:10) 7.5 (03:20) -- -- -- -- --
03-05-2020 23.3 (16:00) 15 (00:00) 19.1 13.33 (17:50) 6.94 (04:30) -- -- -- -- --
02-05-2020 24.9 (12:40) 15.6 (00:00) 20.3 10.83 (18:50) 5.28 (19:00) -- -- -- -- --
01-05-2020 21.4 (18:20) 10.6 (00:00) 16 15 (02:10) 9.17 (07:00) -- -- -- -- --
30-04-2020 14.2 (16:50) 7.5 (00:00) 10.8 15 (08:50) 8.61 (07:50) -- -- -- -- --
29-04-2020 12.6 (14:00) 5.9 (00:00) 9.3 10.83 (21:10) 6.67 (04:20) -- -- -- -- --
28-04-2020 16.5 (15:10) 6.6 (00:00) 11.5 10.83 (22:50) 4.17 (23:00) -- -- -- -- --

Gráficas

Temp. máximas Temp. mínimas Temp. medias Precipitaciones Rachas de viento máximas Velocidades máximas media en intervalos de 10 minutos

Datos horarios

Fecha y hora oficial Temperatura (ºC) Velocidad del viento (km/h) Dirección del viento Racha (km/h) Dirección de racha Precipitación (mm) Presión (hPa) Tendencia (hPa) Humedad (%)
2020-05-27 22:00:00 -- -- -- -- -- -- -- -- --
2020-05-27 21:00:00 -- -- -- -- -- -- -- -- --
2020-05-27 20:00:00 20.3 4 Nordeste 11 Nordeste -- -- -- 24
2020-05-27 19:00:00 23 5 Norte 14 Este -- -- -- 29
2020-05-27 18:00:00 23 7 Este 17 Este -- -- -- 30
2020-05-27 17:00:00 24.3 6 Nordeste 20 Este -- -- -- 25
2020-05-27 16:00:00 26.4 7 Este 17 Este -- -- -- 26
2020-05-27 15:00:00 25.6 6 Este 19 Norte -- -- -- 30
2020-05-27 14:00:00 26.7 5 Este 13 Este -- -- -- 22
2020-05-27 13:00:00 26.9 5 Este 12 Sudeste -- -- -- 25
2020-05-27 12:00:00 25.5 6 Sudoeste 13 Sur -- -- -- 22
2020-05-27 11:00:00 24.6 4 Sudoeste 9 Sur -- -- -- 16
2020-05-27 10:00:00 23.9 4 Sudoeste 7 Sudoeste -- -- -- 11
2020-05-27 09:00:00 22.1 3 Sudoeste 6 Oeste -- -- -- 13
2020-05-27 08:00:00 21 4 Oeste 6 Oeste -- -- -- 14
2020-05-27 07:00:00 20.3 3 Oeste 6 Oeste -- -- -- 15
2020-05-27 06:00:00 19.9 4 Oeste 6 Oeste -- -- -- 15
2020-05-27 05:00:00 19.8 3 Oeste 6 Sudoeste -- -- -- 14
2020-05-27 04:00:00 19.6 3 Oeste 8 Oeste -- -- -- 15
2020-05-27 03:00:00 20.6 4 Oeste 8 Sudoeste -- -- -- 17
2020-05-27 02:00:00 20.4 4 Sudoeste 9 Sudoeste -- -- -- 21
2020-05-27 01:00:00 20.7 6 Sudoeste 12 Sudoeste -- -- -- 24
2020-05-27 00:00:00 21.2 6 Sudoeste 17 Sudoeste -- -- -- 23
2020-05-26 23:00:00 22 10 Sudoeste 16 Sudoeste -- -- -- 21
2020-05-26 22:00:00 21.1 7 Sudoeste 18 Sudoeste -- -- -- 27
2020-05-26 21:00:00 21.9 14 Sudoeste 23 Sudoeste -- -- -- 28
2020-05-26 20:00:00 24.4 8 Sudoeste 21 Oeste -- -- -- 23
2020-05-26 19:00:00 26.5 9 Sudoeste 24 Sudoeste -- -- -- 20
2020-05-26 18:00:00 27.3 5 Este 14 Sur -- -- -- 26
2020-05-26 17:00:00 27.5 5 Este 11 Sudeste -- -- -- 30
2020-05-26 16:00:00 28.2 5 Este 13 Sudoeste -- -- -- 27
2020-05-26 15:00:00 28.5 4 Este 12 Sur -- -- -- 25
2020-05-26 14:00:00 27.7 5 Este 14 Este -- -- -- 24
2020-05-26 13:00:00 27.9 4 Este 13 Sudoeste -- -- -- 25
2020-05-26 12:00:00 26.9 5 Sudoeste 14 Sudoeste -- -- -- 16
2020-05-26 11:00:00 25.8 4 Este 10 Este -- -- -- 23
2020-05-26 10:00:00 25.1 3 Nordeste 10 Este -- -- -- 26
2020-05-26 09:00:00 22.1 2 Nordeste 6 Nordeste -- -- -- 27
2020-05-26 08:00:00 20.4 2 Nordeste 5 Nordeste -- -- -- 28
2020-05-26 07:00:00 19.1 2 Nordeste 8 Este -- -- -- 28
2020-05-26 06:00:00 19.6 2 Nordeste 6 Este -- -- -- 20
2020-05-26 05:00:00 18.1 0 Calma 5 Nordeste -- -- -- 28
2020-05-26 04:00:00 19 0 Calma 6 Nordeste -- -- -- 27
2020-05-26 03:00:00 20.8 3 Nordeste 14 Nordeste -- -- -- 21
2020-05-26 02:00:00 20 3 Nordeste 21 Nordeste -- -- -- 24
2020-05-26 01:00:00 21.7 13 Nordeste 21 Norte -- -- -- 19
2020-05-26 00:00:00 21.6 13 Nordeste 18 Norte -- -- -- 19
2020-05-25 23:00:00 21.6 12 Nordeste 18 Nordeste -- -- -- 19
2020-05-25 22:00:00 21 9 Nordeste 19 Nordeste -- -- -- 21
2020-05-25 21:00:00 21.6 9 Nordeste 14 Nordeste -- -- -- 16
2020-05-25 20:00:00 22.7 4 Nordeste 7 Nordeste -- -- -- 37
2020-05-25 19:00:00 24.9 2 Nordeste 8 Nordeste -- -- -- 35
2020-05-25 18:00:00 25.9 3 Nordeste 13 Este -- -- -- 35
2020-05-25 17:00:00 25.6 4 Nordeste 14 Este -- -- -- 31
2020-05-25 16:00:00 26.3 4 Este 17 Nordeste -- -- -- 25
2020-05-25 15:00:00 25.6 5 Nordeste 21 Este -- -- -- 26
2020-05-25 14:00:00 25.4 6 Nordeste 17 Este -- -- -- 24
2020-05-25 13:00:00 25.6 5 Nordeste 17 Nordeste -- -- -- 22
2020-05-25 12:00:00 24.8 6 Nordeste 19 Este -- -- -- 23
2020-05-25 11:00:00 24 5 Nordeste 21 Nordeste -- -- -- 19
2020-05-25 10:00:00 23.6 5 Nordeste 22 Nordeste -- -- -- 15
2020-05-25 09:00:00 22.1 4 Nordeste 21 Norte -- -- -- 9
2020-05-25 08:00:00 21.3 11 Nordeste 27 Nordeste -- -- -- 8
2020-05-25 07:00:00 20.6 17 Nordeste 25 Nordeste -- -- -- 6
2020-05-25 06:00:00 21.4 13 Norte 21 Norte -- -- -- 7
2020-05-25 05:00:00 21.2 15 Norte 24 Norte -- -- -- 9
2020-05-25 04:00:00 22.3 13 Norte 15 Norte -- -- -- 6
2020-05-25 03:00:00 21.6 5 Nordeste 17 Norte -- -- -- 9
2020-05-25 02:00:00 22.2 14 Norte 21 Nordeste -- -- -- 7
2020-05-25 01:00:00 22.4 16 Norte 20 Norte -- -- -- 6
2020-05-25 00:00:00 22.4 15 Nordeste 19 Nordeste -- -- -- 6
2020-05-24 23:00:00 21.6 7 Nordeste 18 Este -- -- -- 8
2020-05-24 22:00:00 22 4 Nordeste 10 Noroeste -- -- -- 8
2020-05-24 21:00:00 22.8 2 Nordeste 10 Sudoeste -- -- -- 9
2020-05-24 20:00:00 25 4 Sudoeste 15 Sur -- -- -- 32
2020-05-24 19:00:00 28 4 Oeste 19 Oeste -- -- -- 22
2020-05-24 18:00:00 28.6 8 Sudoeste 19 Sudoeste -- -- -- 22
2020-05-24 17:00:00 27.7 12 Sudeste 29 Sur -- -- -- 26
2020-05-24 16:00:00 26.8 6 Nordeste 18 Este -- -- -- 18
2020-05-24 15:00:00 26.4 8 Nordeste 20 Este -- -- -- 19
2020-05-24 14:00:00 26.6 7 Este 24 Este -- -- -- 16
2020-05-24 13:00:00 25.5 8 Nordeste 26 Nordeste -- -- -- 16
2020-05-24 12:00:00 25.1 8 Nordeste 26 Nordeste -- -- -- 17
2020-05-24 11:00:00 23.9 8 Nordeste 25 Nordeste -- -- -- 10
2020-05-24 10:00:00 23.1 12 Nordeste 33 Nordeste -- -- -- 13
2020-05-24 09:00:00 22.3 10 Nordeste 34 Nordeste -- -- -- 14
2020-05-24 08:00:00 19.8 9 Nordeste 26 Norte -- -- -- 21
2020-05-24 07:00:00 19 9 Nordeste 19 Nordeste -- -- -- 20
2020-05-24 06:00:00 18.1 6 Nordeste 16 Nordeste -- -- -- 23
2020-05-24 05:00:00 17.1 6 Nordeste 18 Norte -- -- -- 29
2020-05-24 04:00:00 16.2 5 Nordeste 20 Nordeste -- -- -- 31
2020-05-24 03:00:00 16.4 10 Nordeste 17 Nordeste -- -- -- 35
2020-05-24 02:00:00 17.6 8 Nordeste 21 Nordeste -- -- -- 32
2020-05-24 01:00:00 22.4 13 Nordeste 20 Nordeste -- -- -- 18
2020-05-24 00:00:00 22.5 14 Nordeste 19 Nordeste -- -- -- 19
2020-05-23 23:00:00 22.4 12 Nordeste 18 Nordeste -- -- -- 18
2020-05-23 22:00:00 22.3 10 Nordeste 16 Nordeste -- -- -- 18
2020-05-23 21:00:00 22.3 9 Nordeste 18 Nordeste -- -- -- 18
2020-05-23 20:00:00 22.8 10 Nordeste 24 Nordeste -- -- -- 19
2020-05-23 19:00:00 24 6 Nordeste 28 Nordeste -- -- -- 19
2020-05-23 18:00:00 24.5 8 Nordeste 36 Nordeste -- -- -- 22
2020-05-23 17:00:00 24.4 12 Nordeste 63 Nordeste -- -- -- 21
2020-05-23 16:00:00 24.6 11 Nordeste 41 Nordeste -- -- -- 23
2020-05-23 15:00:00 24.3 15 Nordeste 43 Nordeste -- -- -- 26
2020-05-23 14:00:00 24.1 14 Nordeste 44 Nordeste -- -- -- 26
2020-05-23 13:00:00 23.6 11 Nordeste 42 Nordeste -- -- -- 25
2020-05-23 12:00:00 22.8 11 Nordeste 39 Norte -- -- -- 27
2020-05-23 11:00:00 21.7 10 Nordeste 42 Nordeste -- -- -- 25
2020-05-23 10:00:00 20.6 8 Nordeste 40 Nordeste -- -- -- 25
2020-05-23 09:00:00 19.5 10 Nordeste 41 Nordeste -- -- -- 26
2020-05-23 08:00:00 18.8 19 Nordeste 40 Nordeste -- -- -- 33
2020-05-23 07:00:00 17.8 24 Nordeste 42 Nordeste -- -- -- 36
2020-05-23 06:00:00 17.8 28 Nordeste 43 Nordeste -- -- -- 36
2020-05-23 05:00:00 17.4 21 Nordeste 40 Nordeste -- -- -- 36
2020-05-23 04:00:00 17.4 15 Nordeste 37 Norte -- -- -- 38
2020-05-23 03:00:00 16.6 19 Nordeste 35 Nordeste -- -- -- 41
2020-05-23 02:00:00 17.6 20 Nordeste 37 Norte -- -- -- 37
2020-05-23 01:00:00 17.1 24 Nordeste 40 Norte -- -- -- 41
2020-05-23 00:00:00 18.3 27 Norte 35 Norte -- -- -- 36
2020-05-22 23:00:00 18.5 9 Nordeste 27 Norte -- -- -- 31
2020-05-22 22:00:00 18.8 10 Nordeste 26 Nordeste -- -- -- 29
2020-05-22 21:00:00 17.1 3 Nordeste 26 Nordeste -- -- -- 40
2020-05-22 20:00:00 17.6 6 Nordeste 26 Norte -- -- -- 40
2020-05-22 19:00:00 18.8 15 Nordeste 29 Nordeste -- -- -- 38
2020-05-22 18:00:00 20.4 5 Nordeste 17 Nordeste -- -- -- 41
2020-05-22 17:00:00 20.3 4 Nordeste 26 Nordeste -- -- -- 35
2020-05-22 16:00:00 20.3 8 Nordeste 32 Nordeste -- -- -- 38
2020-05-22 15:00:00 20.3 7 Nordeste 32 Nordeste -- -- -- 44
2020-05-22 14:00:00 19.9 7 Nordeste 37 Nordeste -- -- -- 38
2020-05-22 13:00:00 19.9 11 Nordeste 35 Nordeste -- -- -- 30
2020-05-22 12:00:00 19.1 9 Nordeste 39 Nordeste -- -- -- 28
2020-05-22 11:00:00 18.1 10 Nordeste 38 Nordeste -- -- -- 28
2020-05-22 10:00:00 17.3 14 Nordeste 37 Nordeste -- -- -- 29
2020-05-22 09:00:00 16.8 10 Nordeste 38 Nordeste -- -- -- 28
2020-05-22 08:00:00 16 18 Nordeste 40 Nordeste -- -- -- 29
2020-05-22 07:00:00 15.4 23 Nordeste 41 Nordeste -- -- -- 30
2020-05-22 06:00:00 14.9 26 Nordeste 44 Nordeste -- -- -- 26
2020-05-22 05:00:00 14.5 26 Nordeste 41 Nordeste -- -- -- 24
2020-05-22 04:00:00 14 21 Nordeste 35 Nordeste -- -- -- 25
2020-05-22 03:00:00 13.8 6 Nordeste 30 Nordeste -- -- -- 28
2020-05-22 02:00:00 14.8 17 Nordeste 31 Nordeste -- -- -- 33
2020-05-22 01:00:00 13.8 8 Nordeste 26 Norte -- -- -- 29
2020-05-22 00:00:00 14.4 6 Nordeste 22 Nordeste -- -- -- 29
2020-05-21 23:00:00 14.1 3 Nordeste 18 Nordeste -- -- -- 29
2020-05-21 22:00:00 14.5 4 Nordeste 21 Nordeste -- -- -- 28
2020-05-21 21:00:00 15 4 Nordeste 9 Nordeste -- -- -- 35
2020-05-21 20:00:00 16.7 6 Nordeste 13 Nordeste -- -- -- 47
2020-05-21 19:00:00 18.9 4 Nordeste 8 Nordeste -- -- -- 45
2020-05-21 18:00:00 21.1 4 Este 16 Sudoeste -- -- -- 46
2020-05-21 17:00:00 23.4 3 Nordeste 9 Oeste -- -- -- 23
2020-05-21 16:00:00 21.7 4 Este 12 Este -- -- -- 29
2020-05-21 15:00:00 22.3 5 Este 14 Este -- -- -- 11
2020-05-21 14:00:00 20.4 5 Nordeste 18 Este -- -- -- 13
2020-05-21 13:00:00 19.5 5 Nordeste 15 Este -- -- -- 26
2020-05-21 12:00:00 19.4 5 Nordeste 13 Este -- -- -- 24
2020-05-21 11:00:00 18.2 4 Nordeste 13 Nordeste -- -- -- 17
2020-05-21 10:00:00 16.5 4 Nordeste 17 Nordeste -- -- -- 30
2020-05-21 09:00:00 16.1 4 Nordeste 24 Nordeste -- -- -- 30
2020-05-21 08:00:00 14 12 Nordeste 26 Norte -- -- -- 32
2020-05-21 07:00:00 12.5 18 Nordeste 31 Norte -- -- -- 34
2020-05-21 06:00:00 11.7 13 Nordeste 27 Norte -- -- -- 35
2020-05-21 05:00:00 12.1 19 Nordeste 27 Nordeste -- -- -- 36
2020-05-21 04:00:00 12.2 17 Nordeste 30 Nordeste -- -- -- 34
2020-05-21 03:00:00 12.5 14 Nordeste 30 Nordeste -- -- -- 32
2020-05-21 02:00:00 12.8 19 Nordeste 35 Nordeste -- -- -- 31
2020-05-21 01:00:00 12.5 17 Nordeste 29 Nordeste -- -- -- 33
2020-05-21 00:00:00 10.4 6 Nordeste 35 Nordeste -- -- -- 45
2020-05-20 23:00:00 10.1 6 Nordeste 26 Nordeste -- -- -- 49
2020-05-20 22:00:00 10.3 4 Nordeste 21 Nordeste -- -- -- 51
2020-05-20 21:00:00 12.4 11 Nordeste 35 Nordeste -- -- -- 39
2020-05-20 20:00:00 14 12 Nordeste 36 Nordeste -- -- -- 33
2020-05-20 19:00:00 15.3 12 Nordeste 31 Nordeste -- -- -- 31
2020-05-20 18:00:00 15.7 8 Nordeste 33 Nordeste -- -- -- 31
2020-05-20 17:00:00 15.9 6 Nordeste 25 Nordeste -- -- -- 39
2020-05-20 16:00:00 16.4 6 Nordeste 31 Nordeste -- -- -- 37
2020-05-20 15:00:00 16.5 9 Nordeste 32 Nordeste -- -- -- 37
2020-05-20 14:00:00 16.9 5 Nordeste 26 Nordeste -- -- -- 34
2020-05-20 13:00:00 17.2 7 Nordeste 23 Nordeste -- -- -- 37
2020-05-20 12:00:00 16.9 6 Nordeste 26 Nordeste -- -- -- 27
2020-05-20 11:00:00 16.1 4 Nordeste 30 Nordeste -- -- -- 31
2020-05-20 10:00:00 15.3 5 Nordeste 28 Nordeste -- -- -- 31
2020-05-20 09:00:00 14.3 5 Nordeste 30 Norte -- -- -- 33
2020-05-20 08:00:00 13.7 9 Nordeste 33 Nordeste -- -- -- 32
2020-05-20 07:00:00 12.5 21 Nordeste 31 Nordeste -- -- -- 35
2020-05-20 06:00:00 12.8 19 Nordeste 32 Nordeste -- -- -- 35
2020-05-20 05:00:00 12.8 18 Nordeste 30 Nordeste -- -- -- 39
2020-05-20 04:00:00 12.9 20 Nordeste 31 Nordeste -- -- -- 43
2020-05-20 03:00:00 12.4 19 Nordeste 27 Nordeste -- -- -- 48
2020-05-20 02:00:00 12.2 21 Nordeste 27 Nordeste -- -- -- 51
2020-05-20 01:00:00 12.6 17 Nordeste 31 Norte -- -- -- 46
2020-05-20 00:00:00 12.5 5 Nordeste 18 Norte -- -- -- 71
2020-05-19 23:00:00 15.3 9 Norte 16 Norte -- -- -- 58
2020-05-19 22:00:00 14.3 4 Nordeste 8 Nordeste -- -- -- 78
2020-05-19 21:00:00 14.5 3 Nordeste 8 Nordeste -- -- -- 78
2020-05-19 20:00:00 17.4 3 Sudoeste 10 Oeste -- -- -- 75
2020-05-19 19:00:00 20.9 2 Este 11 Sur -- -- -- 63
2020-05-19 18:00:00 18.4 7 Sudoeste 17 Sudoeste -- -- -- 72
2020-05-19 17:00:00 18.2 8 Sudoeste 21 Sudoeste -- -- -- 72
2020-05-19 16:00:00 19.8 5 Este 15 Este -- -- -- 68
2020-05-19 15:00:00 18.5 6 Este 15 Este -- -- -- 72
2020-05-19 14:00:00 17.1 5 Nordeste 18 Nordeste -- -- -- 76
2020-05-19 13:00:00 16.7 5 Nordeste 21 Este -- -- -- 70
2020-05-19 12:00:00 15.5 3 Nordeste 14 Nordeste -- -- -- 59
2020-05-19 11:00:00 15.4 4 Nordeste 13 Nordeste -- -- -- 48
2020-05-19 10:00:00 16.3 3 Nordeste 7 Nordeste -- -- -- 50
2020-05-19 09:00:00 16.1 0 Calma 4 Sudoeste -- -- -- 4
2020-05-19 08:00:00 16 3 Nordeste 5 Norte -- -- -- 14
2020-05-19 07:00:00 14.1 0 Calma 12 Oeste -- -- -- 5
2020-05-19 06:00:00 14.8 8 Oeste 13 Oeste -- -- -- 3
2020-05-19 05:00:00 14 2 Sur 10 Oeste -- -- -- 6
2020-05-19 04:00:00 14.2 7 Sudoeste 10 Oeste -- -- -- 6
2020-05-19 03:00:00 12.1 0 Calma 9 Nordeste -- -- -- 11
2020-05-19 02:00:00 13.1 8 Nordeste 12 Norte -- -- -- 17
2020-05-19 01:00:00 13 5 Norte 10 Norte -- -- -- 11
2020-05-19 00:00:00 14.3 6 Nordeste 9 Norte -- -- -- 13
2020-05-18 23:00:00 11.6 3 Sudoeste 8 Norte -- -- -- 33
2020-05-18 22:00:00 7.9 2 Nordeste 12 Nordeste -- -- -- 84
2020-05-18 21:00:00 8.5 5 Nordeste 16 Nordeste -- -- -- 96
2020-05-18 20:00:00 9.9 5 Nordeste 11 Nordeste -- -- -- 94
2020-05-18 19:00:00 12.7 3 Nordeste 12 Nordeste -- -- -- 84
2020-05-18 18:00:00 13.7 3 Nordeste 13 Este -- -- -- 80
2020-05-18 17:00:00 13.4 4 Nordeste 14 Nordeste -- -- -- 83
2020-05-18 16:00:00 13.3 3 Nordeste 17 Este -- -- -- 77
2020-05-18 15:00:00 13.5 4 Nordeste 21 Nordeste -- -- -- 65
2020-05-18 14:00:00 13.6 4 Nordeste 17 Nordeste -- -- -- 58
2020-05-18 13:00:00 12.5 4 Nordeste 18 Nordeste -- -- -- 75
2020-05-18 12:00:00 11.6 4 Nordeste 24 Nordeste -- -- -- 81
2020-05-18 11:00:00 10.8 4 Nordeste 24 Nordeste -- -- -- 77
2020-05-18 10:00:00 9.6 2 Nordeste 27 Nordeste -- -- -- 70
2020-05-18 09:00:00 7.5 12 Nordeste 27 Nordeste -- -- -- 91
2020-05-18 08:00:00 6.7 8 Nordeste 25 Nordeste -- -- -- 91
2020-05-18 07:00:00 8 18 Nordeste 23 Nordeste -- -- -- 63
2020-05-18 06:00:00 5.7 8 Nordeste 28 Norte -- -- -- 100
2020-05-18 05:00:00 6.1 13 Nordeste 27 Nordeste -- -- -- 100
2020-05-18 04:00:00 6.7 4 Nordeste 28 Nordeste -- -- -- 100
2020-05-18 03:00:00 6.7 7 Nordeste 33 Nordeste -- -- -- 100
2020-05-18 02:00:00 6.5 15 Nordeste 33 Nordeste -- -- -- 100
2020-05-18 01:00:00 6.6 7 Nordeste 32 Nordeste -- -- -- 100
2020-05-18 00:00:00 6 21 Nordeste 33 Nordeste -- -- -- 100
2020-05-17 23:00:00 6 8 Nordeste 35 Este -- -- -- 100
2020-05-17 22:00:00 5.4 20 Nordeste 37 Norte -- -- -- 100
2020-05-17 21:00:00 5.4 23 Nordeste 36 Nordeste -- -- -- 100
2020-05-17 20:00:00 6 7 Nordeste 34 Nordeste -- -- -- 100
2020-05-17 19:00:00 7.1 6 Nordeste -- -- -- -- -- 100
2020-05-17 18:00:00 7.9 5 Nordeste 29 Nordeste -- -- -- 100
2020-05-17 17:00:00 8.1 6 Nordeste 23 Norte -- -- -- 100
2020-05-17 16:00:00 8.7 5 Nordeste 24 Este -- -- -- 100
2020-05-17 15:00:00 8.9 8 Nordeste 26 Este -- -- -- 100
2020-05-17 14:00:00 8.8 7 Nordeste 21 Este -- -- -- 100
2020-05-17 13:00:00 7.8 18 Este 34 Nordeste -- -- -- 100
2020-05-17 12:00:00 7.4 7 Nordeste 35 Nordeste -- -- -- 100
2020-05-17 11:00:00 7.1 10 Nordeste 36 Este -- -- -- 100
2020-05-17 10:00:00 6.9 8 Nordeste 37 Nordeste -- -- -- 100
2020-05-17 09:00:00 6.3 9 Nordeste -- -- -- -- -- 100
2020-05-17 08:00:00 -- -- -- -- -- -- -- -- --
2020-05-17 07:00:00 7.1 13 Nordeste -- -- -- -- -- 100
2020-05-17 06:00:00 7.3 12 Nordeste -- -- -- -- -- 100
2020-05-17 05:00:00 6.3 9 Nordeste -- -- -- -- -- 99
2020-05-17 04:00:00 6.1 11 Nordeste -- -- -- -- -- 99
2020-05-17 03:00:00 6.8 9 Nordeste -- -- -- -- -- 99
2020-05-17 02:00:00 -- -- -- -- -- -- -- -- --
2020-05-17 01:00:00 6.6 11 Nordeste -- -- -- -- -- 99
2020-05-17 00:00:00 5.4 21 Nordeste 42 Este -- -- -- 99
2020-05-16 23:00:00 6.1 17 Este 44 Este -- -- -- 99
2020-05-16 22:00:00 6.2 11 Nordeste 41 Este -- -- -- 98
2020-05-16 21:00:00 6.1 18 Este 41 Nordeste -- -- -- 98
2020-05-16 20:00:00 6.7 10 Este 34 Este -- -- -- 95
2020-05-16 19:00:00 7.5 13 Nordeste 29 Nordeste -- -- -- 85
2020-05-16 18:00:00 8.9 12 Norte 26 Norte -- -- -- 86
2020-05-16 17:00:00 10.2 8 Nordeste 24 Nordeste -- -- -- 76
2020-05-16 16:00:00 10.6 9 Nordeste 23 Norte -- -- -- 72
2020-05-16 15:00:00 10.7 12 Norte 22 Noroeste -- -- -- 71
2020-05-16 14:00:00 12.3 5 Este 18 Norte -- -- -- 74
2020-05-16 13:00:00 9.7 8 Norte 23 Este -- -- -- 79
2020-05-16 12:00:00 8.8 5 Este 31 Este -- -- -- 84
2020-05-16 11:00:00 6.9 7 Nordeste 32 Norte -- -- -- 97
2020-05-16 10:00:00 6.3 8 Nordeste 32 Nordeste -- -- -- 98
2020-05-16 09:00:00 6.1 7 Nordeste 27 Norte -- -- -- 99
2020-05-16 08:00:00 6.3 7 Nordeste 37 Norte -- -- -- 99
2020-05-16 07:00:00 5.2 8 Nordeste -- -- -- -- -- 99
2020-05-16 06:00:00 5 8 Nordeste 29 Norte -- -- -- 99
2020-05-16 05:00:00 6 6 Nordeste 31 Este -- -- -- 99
2020-05-16 04:00:00 6.3 8 Nordeste 32 Este -- -- -- 99
2020-05-16 03:00:00 6.2 5 Norte 21 Sudoeste -- -- -- 99
2020-05-16 02:00:00 6.5 6 Nordeste -- -- -- -- -- 99
2020-05-16 01:00:00 6.9 7 Nordeste 28 Nordeste -- -- -- 99
2020-05-16 00:00:00 6.5 5 Nordeste 31 Este -- -- -- 99
2020-05-15 23:00:00 6.2 10 Nordeste 39 Este -- -- -- 98
2020-05-15 22:00:00 6.4 11 Nordeste 27 Este -- -- -- 98
2020-05-15 21:00:00 6.6 8 Nordeste 31 Nordeste -- -- -- 96
2020-05-15 20:00:00 7.4 5 Nordeste 26 Nordeste -- -- -- 91
2020-05-15 19:00:00 8.3 9 Oeste 22 Oeste -- -- -- 88
2020-05-15 18:00:00 8.9 9 Sudoeste 24 Sudoeste -- -- -- 83
2020-05-15 17:00:00 10.1 6 Noroeste 27 Sudoeste -- -- -- 84
2020-05-15 16:00:00 9 6 Sur 19 Sudoeste -- -- -- 95
2020-05-15 15:00:00 8.6 7 Sudoeste 25 Sudoeste -- -- -- 97
2020-05-15 14:00:00 7.8 7 Oeste 23 Norte -- -- -- 98
2020-05-15 13:00:00 8.3 6 Oeste -- -- -- -- -- 98
2020-05-15 12:00:00 8.5 5 Oeste 20 Sur -- -- -- 98
2020-05-15 11:00:00 -- -- -- -- -- -- -- -- --
2020-05-15 10:00:00 -- -- -- -- -- -- -- -- --
2020-05-15 09:00:00 7 4 Sur 19 Oeste -- -- -- 98
2020-05-15 08:00:00 6.1 7 Sur 30 Oeste -- -- -- 97
2020-05-15 07:00:00 5.5 4 Sudoeste 18 Oeste -- -- -- 95
2020-05-15 06:00:00 5 7 Sudoeste 29 Noroeste -- -- -- 92
2020-05-15 05:00:00 4.9 8 Sudoeste 25 Oeste -- -- -- 92
2020-05-15 04:00:00 5.1 6 Sudeste 19 Oeste -- -- -- 94
2020-05-15 03:00:00 4.9 4 Oeste 24 Oeste -- -- -- 96
2020-05-15 02:00:00 5.7 6 Oeste -- -- -- -- -- 98
2020-05-15 01:00:00 -- -- -- -- -- -- -- -- --
2020-05-15 00:00:00 6.2 9 Sudoeste -- -- -- -- -- 94
2020-05-14 23:00:00 6 9 Sudoeste 31 Sudoeste -- -- -- 91
2020-05-14 22:00:00 6.2 8 Sudoeste 32 Oeste -- -- -- 94
2020-05-14 21:00:00 6.6 10 Sur 27 Sudeste -- -- -- 89
2020-05-14 20:00:00 6.9 9 Sudoeste 29 Sur -- -- -- 88
2020-05-14 19:00:00 7.2 8 Oeste 23 Sur -- -- -- 93
2020-05-14 18:00:00 8.1 10 Sudoeste 29 Sudoeste -- -- -- 95
2020-05-14 17:00:00 12 13 Sudoeste 31 Sudoeste -- -- -- 71
2020-05-14 16:00:00 12.5 13 Sudoeste 27 Sudoeste -- -- -- 73
2020-05-14 15:00:00 13.1 10 Sudoeste 32 Sudoeste -- -- -- 64
2020-05-14 14:00:00 11.5 18 Sudoeste 32 Sudoeste -- -- -- 64
2020-05-14 13:00:00 11.3 13 Sudoeste 33 Sudoeste -- -- -- 66
2020-05-14 12:00:00 9.3 17 Sudoeste 40 Oeste -- -- -- 73
2020-05-14 11:00:00 8.8 13 Sudoeste 29 Sudoeste -- -- -- 80
2020-05-14 10:00:00 8.9 14 Sudoeste 26 Sur -- -- -- 86
2020-05-14 09:00:00 7.8 12 Sudoeste 30 Sudoeste -- -- -- 90
2020-05-14 08:00:00 7.4 15 Sudoeste 38 Sudoeste -- -- -- 91
2020-05-14 07:00:00 6.4 12 Sudoeste 36 Sudoeste -- -- -- 93
2020-05-14 06:00:00 6.1 15 Sudoeste 33 Sudoeste -- -- -- 89
2020-05-14 05:00:00 5.6 14 Sudoeste 31 Sudoeste -- -- -- 87
2020-05-14 04:00:00 6 15 Sudoeste 26 Sudoeste -- -- -- 85
2020-05-14 03:00:00 5.9 12 Sudoeste 38 Sudoeste -- -- -- 91
2020-05-14 02:00:00 6.4 22 Sudoeste 41 Sudoeste -- -- -- 84
2020-05-14 01:00:00 5.5 13 Oeste 30 Sudoeste -- -- -- 91
2020-05-14 00:00:00 6.3 13 Sudoeste 27 Sudoeste -- -- -- 95
2020-05-13 23:00:00 6.4 10 Sudoeste 35 Sudoeste -- -- -- 92
2020-05-13 22:00:00 6.6 15 Sudoeste 39 Sudoeste -- -- -- 92
2020-05-13 21:00:00 7.7 12 Sudoeste 35 Sudoeste -- -- -- 80
2020-05-13 20:00:00 9.6 17 Sudoeste 33 Sudoeste -- -- -- 68
2020-05-13 19:00:00 11.8 18 Sudoeste 35 Oeste -- -- -- 59
2020-05-13 18:00:00 13.1 17 Sudoeste 39 Sudoeste -- -- -- 53
2020-05-13 17:00:00 13.2 15 Sudoeste 42 Sudoeste -- -- -- 62
2020-05-13 16:00:00 15.1 10 Sudoeste 34 Sudoeste -- -- -- 59
2020-05-13 15:00:00 14.7 11 Sudoeste 31 Oeste -- -- -- 56
2020-05-13 14:00:00 14.6 8 Sudoeste 34 Sudoeste -- -- -- 55
2020-05-13 13:00:00 13.5 9 Sur 31 Sudoeste -- -- -- 54
2020-05-13 12:00:00 11 11 Sudoeste 44 Sudoeste -- -- -- 73
2020-05-13 11:00:00 9.3 13 Sudoeste -- -- -- -- -- 88
2020-05-13 10:00:00 9.3 13 Sudoeste 41 Sudoeste -- -- -- 87
2020-05-13 09:00:00 9 10 Oeste 42 Sudoeste -- -- -- 91
2020-05-13 08:00:00 8 12 Sudoeste 40 Sudoeste -- -- -- 97
2020-05-13 07:00:00 7.1 9 Sudoeste 46 Sudoeste -- -- -- 98
2020-05-13 06:00:00 7.6 10 Sudoeste 28 Sudoeste -- -- -- 99
2020-05-13 05:00:00 7.6 8 Sudoeste 32 Sudoeste -- -- -- 98
2020-05-13 04:00:00 7.5 12 Sudoeste 32 Sudoeste -- -- -- 96
2020-05-13 03:00:00 7.3 10 Sudoeste 41 Sudoeste -- -- -- 98
2020-05-13 02:00:00 7.3 8 Sudoeste 28 Oeste -- -- -- 99
2020-05-13 01:00:00 7.8 7 Sudoeste 22 Sudoeste -- -- -- 99
2020-05-13 00:00:00 8 7 Sudoeste 27 Sudoeste -- -- -- 98
2020-05-12 23:00:00 8.1 8 Sudoeste 23 Sudoeste -- -- -- 98
2020-05-12 22:00:00 8.5 6 Sudoeste 26 Sudoeste -- -- -- 98
2020-05-12 21:00:00 8.2 9 Sudoeste 31 Sudoeste -- -- -- 97
2020-05-12 20:00:00 8.8 8 Oeste 22 Oeste -- -- -- 94
2020-05-12 19:00:00 9.8 8 Sudoeste 24 Sudoeste -- -- -- 88
2020-05-12 18:00:00 10.7 6 Sudoeste 18 Sudoeste -- -- -- 82
2020-05-12 17:00:00 11 6 Sudoeste 25 Sudoeste -- -- -- 76
2020-05-12 16:00:00 12.3 8 Sudoeste 25 Sur -- -- -- 68
2020-05-12 15:00:00 11.9 10 Sudoeste 27 Sudoeste -- -- -- 70
2020-05-12 14:00:00 10.1 6 Sudoeste 26 Sudoeste -- -- -- 85
2020-05-12 13:00:00 9.6 7 Sudoeste 27 Oeste -- -- -- 82
2020-05-12 12:00:00 8.5 6 Sudoeste 25 Sudoeste -- -- -- 97
2020-05-12 11:00:00 7.7 7 Sudoeste 22 Sudoeste -- -- -- 98
2020-05-12 10:00:00 8.1 4 Oeste -- -- -- -- -- 98
2020-05-12 09:00:00 7.7 5 Oeste 26 Sudoeste -- -- -- 97
2020-05-12 08:00:00 7.1 6 Oeste 29 Sudoeste -- -- -- 91
2020-05-12 07:00:00 6.9 5 Sudoeste 26 Oeste -- -- -- 85
2020-05-12 06:00:00 6.5 7 Sudoeste 28 Sudoeste -- -- -- 84
2020-05-12 05:00:00 6.1 0 Calma 22 Sudoeste -- -- -- 89
2020-05-12 04:00:00 6.6 6 Sudoeste 20 Sudoeste -- -- -- 92
2020-05-12 03:00:00 6.7 8 Sudoeste 30 Sudoeste -- -- -- 93
2020-05-12 02:00:00 6.5 13 Sudoeste 33 Sudoeste -- -- -- 85
2020-05-12 01:00:00 7.8 15 Oeste 46 Sudoeste -- -- -- 71
2020-05-12 00:00:00 9.2 19 Sudoeste 53 Sudoeste -- -- -- 49
2020-05-11 23:00:00 8.4 18 Sudoeste -- -- -- -- -- 96
2020-05-11 22:00:00 10.8 10 Sudoeste 30 Oeste -- -- -- 97
2020-05-11 21:00:00 10.6 12 Oeste 36 Oeste -- -- -- 91
2020-05-11 20:00:00 11.7 9 Sudoeste 30 Sur -- -- -- 81
2020-05-11 19:00:00 12.9 13 Sudoeste 35 Sudoeste -- -- -- 76
2020-05-11 18:00:00 15.6 9 Sudoeste 35 Sudoeste -- -- -- 60
2020-05-11 17:00:00 16.3 12 Sudoeste 36 Sudoeste -- -- -- 54
2020-05-11 16:00:00 17.9 13 Sudoeste 33 Sudoeste -- -- -- 42
2020-05-11 15:00:00 16.7 15 Sudoeste 38 Sudoeste -- -- -- 37
2020-05-11 14:00:00 18.3 8 Sudoeste 19 Sudoeste -- -- -- 46
2020-05-11 13:00:00 17.2 8 Sudoeste 22 Sudoeste -- -- -- 51
2020-05-11 12:00:00 14.9 9 Sudoeste 20 Sudoeste -- -- -- 64
2020-05-11 11:00:00 12.6 9 Sudoeste 15 Sudoeste -- -- -- 74
2020-05-11 10:00:00 13.2 6 Oeste 15 Sur -- -- -- 53
2020-05-11 09:00:00 11.9 6 Sudoeste 13 Oeste -- -- -- 54
2020-05-11 08:00:00 13.1 5 Sudoeste 23 Oeste -- -- -- 45
2020-05-11 07:00:00 14.1 8 Oeste 23 Oeste -- -- -- 35
2020-05-11 06:00:00 12.6 7 Noroeste 28 Noroeste -- -- -- 43
2020-05-11 05:00:00 12.3 15 Noroeste 29 Noroeste -- -- -- 45
2020-05-11 04:00:00 11.9 13 Noroeste 29 Noroeste -- -- -- 54
2020-05-11 03:00:00 11.6 6 Norte 28 Noroeste -- -- -- 60
2020-05-11 02:00:00 11.4 14 Norte 31 Noroeste -- -- -- 67
2020-05-11 01:00:00 10.3 9 Nordeste 33 Nordeste -- -- -- 80
2020-05-11 00:00:00 10.8 12 Nordeste 43 Este -- -- -- 77
2020-05-10 23:00:00 10.8 19 Este 42 Este -- -- -- 79
2020-05-10 22:00:00 11 21 Este 49 Este -- -- -- 75
2020-05-10 21:00:00 11.4 22 Este 54 Este -- -- -- 65
2020-05-10 20:00:00 12.3 17 Este 43 Nordeste -- -- -- 57
2020-05-10 19:00:00 12.6 10 Nordeste 32 Este -- -- -- 55
2020-05-10 18:00:00 15.1 5 Sur 26 Oeste -- -- -- 57
2020-05-10 17:00:00 16.8 7 Este 22 Sudoeste -- -- -- 49
2020-05-10 16:00:00 17.8 8 Sur 28 Oeste -- -- -- 40
2020-05-10 15:00:00 16.5 10 Noroeste 22 Noroeste -- -- -- 51
2020-05-10 14:00:00 16.8 5 Sudeste 22 Noroeste -- -- -- 56
2020-05-10 13:00:00 14.2 6 Sudoeste 24 Oeste -- -- -- 66
2020-05-10 12:00:00 11.9 8 Oeste 23 Sudoeste -- -- -- 82
2020-05-10 11:00:00 9.8 5 Nordeste 22 Este -- -- -- 96
2020-05-10 10:00:00 9.6 6 Oeste 23 Norte -- -- -- 97
2020-05-10 09:00:00 10.1 7 Nordeste 26 Nordeste -- -- -- 81
2020-05-10 08:00:00 10.7 8 Nordeste 27 Norte -- -- -- 75
2020-05-10 07:00:00 8.7 5 Norte 24 Nordeste -- -- -- 73
2020-05-10 06:00:00 7.4 6 Nordeste 29 Norte -- -- -- 92
2020-05-10 05:00:00 7.7 9 Nordeste 36 Norte -- -- -- 97
2020-05-10 04:00:00 7.7 9 Nordeste 32 Nordeste -- -- -- 96
2020-05-10 03:00:00 7.3 10 Nordeste 33 Este -- -- -- 91
2020-05-10 02:00:00 7.4 8 Nordeste 26 Norte -- -- -- 85
2020-05-10 01:00:00 8.8 9 Norte 33 Norte -- -- -- 71
2020-05-10 00:00:00 11.3 15 Noroeste 36 Norte -- -- -- 57
2020-05-09 23:00:00 9.4 15 Norte 34 Norte -- -- -- 55
2020-05-09 22:00:00 11.1 7 Oeste 32 Oeste -- -- -- 50
2020-05-09 21:00:00 10.5 5 Sudoeste 26 Sur -- -- -- 59
2020-05-09 20:00:00 11.5 8 Sudoeste 24 Sudoeste -- -- -- 80
2020-05-09 19:00:00 14.3 8 Sudoeste 26 Sudoeste -- -- -- 64
2020-05-09 18:00:00 14.9 13 Sudoeste 28 Oeste -- -- -- 65
2020-05-09 17:00:00 15.5 15 Sudoeste 28 Sudoeste -- -- -- 61
2020-05-09 16:00:00 16.4 9 Sudoeste 22 Sudoeste -- -- -- 66
2020-05-09 15:00:00 16.3 10 Sudoeste 27 Oeste -- -- -- 72
2020-05-09 14:00:00 15.4 11 Sudoeste 23 Sudoeste -- -- -- 70
2020-05-09 13:00:00 16.1 10 Sudoeste 20 Sudoeste -- -- -- 67
2020-05-09 12:00:00 17.2 4 Este 13 Nordeste -- -- -- 62
2020-05-09 11:00:00 13.8 4 Sudoeste 9 Sudoeste -- -- -- 66
2020-05-09 10:00:00 12.7 4 Sudoeste 8 Sudoeste -- -- -- 61
2020-05-09 09:00:00 13.5 3 Oeste 7 Sudoeste -- -- -- 39
2020-05-09 08:00:00 13.4 3 Sudoeste 16 Oeste -- -- -- 38
2020-05-09 07:00:00 11 3 Sur 23 Norte -- -- -- 56
2020-05-09 06:00:00 9.7 9 Norte 30 Norte -- -- -- 85
2020-05-09 05:00:00 9.8 9 Norte 22 Norte -- -- -- 73
2020-05-09 04:00:00 10.3 7 Norte 18 Norte -- -- -- 64
2020-05-09 03:00:00 10.9 5 Norte 18 Nordeste -- -- -- 55
2020-05-09 02:00:00 10.7 5 Norte 14 Norte -- -- -- 50
2020-05-09 01:00:00 10.7 6 Norte 16 Nordeste -- -- -- 47
2020-05-09 00:00:00 11.1 4 Norte 18 Nordeste -- -- -- 45
2020-05-08 23:00:00 11.3 5 Nordeste 19 Norte -- -- -- 43
2020-05-08 22:00:00 11.7 4 Nordeste 18 Noroeste -- -- -- 39
2020-05-08 21:00:00 12.1 4 Norte 21 Sudoeste -- -- -- 30
2020-05-08 20:00:00 14.6 5 Oeste 15 Sudoeste -- -- -- 41
2020-05-08 19:00:00 17.9 5 Sudoeste 18 Sudoeste -- -- -- 35
2020-05-08 18:00:00 18.5 5 Sur 21 Sudoeste -- -- -- 28
2020-05-08 17:00:00 19 4 Este 18 Sudoeste -- -- -- 50
2020-05-08 16:00:00 18.9 8 Sudoeste 25 Sudoeste -- -- -- 32
2020-05-08 15:00:00 17.2 12 Sudoeste 26 Oeste -- -- -- 45
2020-05-08 14:00:00 17.7 7 Sudoeste 23 Sudoeste -- -- -- 39
2020-05-08 13:00:00 15.9 10 Sudoeste 20 Sudoeste -- -- -- 43
2020-05-08 12:00:00 15.8 4 Sudoeste 12 Sur -- -- -- 51
2020-05-08 11:00:00 14.4 6 Este 16 Este -- -- -- 63
2020-05-08 10:00:00 13 3 Nordeste 15 Oeste -- -- -- 68
2020-05-08 09:00:00 12.7 4 Nordeste 19 Noroeste -- -- -- 42
2020-05-08 08:00:00 11.8 8 Norte 18 Noroeste -- -- -- 38
2020-05-08 07:00:00 9.5 7 Norte 21 Norte -- -- -- 60
2020-05-08 06:00:00 7.8 6 Norte 23 Nordeste -- -- -- 78
2020-05-08 05:00:00 8.1 5 Nordeste 26 Nordeste -- -- -- 73
2020-05-08 04:00:00 8.1 8 Nordeste 26 Norte -- -- -- 75
2020-05-08 03:00:00 8.3 15 Nordeste 32 Norte -- -- -- 72
2020-05-08 02:00:00 7 6 Nordeste 28 Nordeste -- -- -- 83
2020-05-08 01:00:00 7 11 Nordeste 38 Norte -- -- -- 87
2020-05-08 00:00:00 7.2 21 Norte 37 Norte -- -- -- 88
2020-05-07 23:00:00 7.7 4 Nordeste 26 Nordeste -- -- -- 95
2020-05-07 22:00:00 7.7 6 Nordeste 25 Nordeste -- -- -- 93
2020-05-07 21:00:00 8.1 4 Este 22 Noroeste -- -- -- 88
2020-05-07 20:00:00 10.1 8 Oeste 21 Oeste -- -- -- 70
2020-05-07 19:00:00 15.1 3 Noroeste 12 Oeste -- -- -- 59
2020-05-07 18:00:00 14.5 4 Este 19 Norte -- -- -- 69
2020-05-07 17:00:00 11.6 9 Nordeste 20 Norte -- -- -- 81
2020-05-07 16:00:00 12.1 5 Nordeste 17 Nordeste -- -- -- 84
2020-05-07 15:00:00 11.4 6 Este 17 Nordeste -- -- -- 86
2020-05-07 14:00:00 11.4 4 Nordeste 16 Este -- -- -- 86
2020-05-07 13:00:00 13.3 4 Este 16 Este -- -- -- 78
2020-05-07 12:00:00 12.2 5 Nordeste 15 Este -- -- -- 77
2020-05-07 11:00:00 10.9 6 Nordeste 25 Norte -- -- -- 78
2020-05-07 10:00:00 9.7 10 Nordeste 28 Nordeste -- -- -- 77
2020-05-07 09:00:00 10 9 Norte 24 Norte -- -- -- 75
2020-05-07 08:00:00 7.9 3 Este 5 Este -- -- -- 78
2020-05-07 07:00:00 6.5 2 Nordeste 13 Nordeste -- -- -- 80
2020-05-07 06:00:00 7.5 0 Calma 6 Este -- -- -- 69
2020-05-07 05:00:00 7.2 0 Calma 5 Sudoeste -- -- -- 74
2020-05-07 04:00:00 8.3 5 Sudoeste 9 Sudoeste -- -- -- 80
2020-05-07 03:00:00 7.6 0 Calma 5 Sudoeste -- -- -- 76
2020-05-07 02:00:00 7.4 0 Calma 8 Sudoeste 0 -- -- 83
2020-05-07 01:00:00 8.5 3 Sudoeste 11 Oeste 0 -- -- 85
2020-05-07 00:00:00 7.5 0 Calma 11 Este 0 -- -- 86
2020-05-06 23:00:00 7.7 2 Nordeste 6 Sudoeste 0 -- -- 93
2020-05-06 22:00:00 8.2 0 Calma 4 Nordeste 0 -- -- 94
2020-05-06 21:00:00 10.4 0 Calma 13 Sudoeste 0 -- -- 91
2020-05-06 20:00:00 12.6 6 Sudoeste 21 Sudoeste 0 -- -- 85
2020-05-06 19:00:00 15.2 8 Sudoeste 21 Oeste 0 -- -- 73
2020-05-06 18:00:00 15.6 4 Este 14 Oeste 0 -- -- 72
2020-05-06 17:00:00 15.1 4 Este 13 Nordeste 0 -- -- 74
2020-05-06 16:00:00 15.2 5 Este 12 Este 0 -- -- 74
2020-05-06 15:00:00 14.5 4 Este 12 Este 0 -- -- 75
2020-05-06 14:00:00 14.1 4 Nordeste 13 Este 0 -- -- 77
2020-05-06 13:00:00 15.5 3 Este 10 Este 0 -- -- 69
2020-05-06 12:00:00 15.1 3 Este 9 Este 0 -- -- 68
2020-05-06 11:00:00 15.6 2 Este 9 Oeste 0 -- -- 63
2020-05-06 10:00:00 16.7 6 Sudoeste 11 Sudoeste 0 -- -- 15
2020-05-06 09:00:00 16 4 Oeste 8 Oeste 0 -- -- 12
2020-05-06 08:00:00 14.7 3 Oeste 6 Oeste 0 -- -- 22
2020-05-06 07:00:00 13.3 3 Oeste 7 Oeste 0 -- -- 19
2020-05-06 06:00:00 11.5 0 Calma 6 Nordeste 0 -- -- 14
2020-05-06 05:00:00 11.8 0 Calma 5 Nordeste 0 -- -- 19
2020-05-06 04:00:00 11.1 2 Nordeste 10 Nordeste 0 -- -- 21
2020-05-06 03:00:00 9.2 3 Nordeste 9 Nordeste 0 -- -- 54
2020-05-06 02:00:00 9.5 3 Nordeste 15 Norte 0 -- -- 43
2020-05-06 01:00:00 8.5 3 Nordeste 7 Nordeste 0 -- -- 38
2020-05-06 00:00:00 8.4 3 Nordeste 10 Nordeste 0 -- -- 56
2020-05-05 23:00:00 8.1 3 Nordeste 10 Norte 0 -- -- 65
2020-05-05 22:00:00 8.1 3 Nordeste 12 Nordeste 0 -- -- 86
2020-05-05 21:00:00 9.9 4 Nordeste 9 Sudoeste 0 -- -- 68
2020-05-05 20:00:00 12.8 3 Oeste 10 Nordeste 0 -- -- 49
2020-05-05 19:00:00 14.7 0 Calma 9 Nordeste 0 -- -- 64
2020-05-05 18:00:00 15.2 3 Este 8 Nordeste 0 -- -- 67
2020-05-05 17:00:00 16.4 3 Este 9 Este 0 -- -- 66
2020-05-05 16:00:00 17 3 Este 17 Sudoeste 0 -- -- 66
2020-05-05 15:00:00 18 4 Este 16 Sudoeste 0 -- -- 63
2020-05-05 14:00:00 18.2 4 Sudeste 14 Sudoeste 0 -- -- 61
2020-05-05 13:00:00 18 3 Este 10 Oeste 0 -- -- 60
2020-05-05 12:00:00 16.6 4 Este 12 Este 0 -- -- 63
2020-05-05 11:00:00 13.8 4 Este 12 Este 0 -- -- 71
2020-05-05 10:00:00 15.6 3 Este 8 Este 0 -- -- 24
2020-05-05 09:00:00 13.3 3 Nordeste 7 Norte 0 -- -- 17
2020-05-05 08:00:00 11.6 2 Nordeste 7 Nordeste 0 -- -- 19
2020-05-05 07:00:00 11.6 0 Calma 8 Nordeste 0 -- -- 16
2020-05-05 06:00:00 10.2 2 Nordeste 9 Norte 0 -- -- 23
2020-05-05 05:00:00 10.9 4 Norte 13 Norte 0 -- -- 17
2020-05-05 04:00:00 9.6 0 Calma 6 Norte 0 -- -- 47
2020-05-05 03:00:00 10 0 Calma 10 Nordeste 0 -- -- 52
2020-05-05 02:00:00 10.2 3 Nordeste 11 Norte 0 -- -- 66
2020-05-05 01:00:00 9.6 8 Nordeste 19 Norte 0 -- -- 79
2020-05-05 00:00:00 7.6 7 Norte 14 Norte 0 -- -- 98
2020-05-04 23:00:00 8.2 5 Norte 10 Norte 0 -- -- 97
2020-05-04 22:00:00 9.2 2 Nordeste 12 Sudoeste 0 -- -- 97
2020-05-04 21:00:00 10.5 6 Sudoeste 14 Sudoeste 0 -- -- 96
2020-05-04 20:00:00 11.6 0 Calma 7 Este 0 -- -- 94
2020-05-04 19:00:00 13.7 4 Oeste 14 Sudoeste 0 -- -- 84
2020-05-04 18:00:00 15.5 5 Nordeste 21 Sudoeste 0 -- -- 76
2020-05-04 17:00:00 15.6 4 Nordeste 23 Sudoeste 0 -- -- 76
2020-05-04 16:00:00 16.5 8 Sudoeste 25 Sudoeste 0 -- -- 69
2020-05-04 15:00:00 15.6 5 Sudoeste 19 Sudoeste 0 -- -- 81
2020-05-04 14:00:00 13 4 Este 10 Este 0 -- -- 91
2020-05-04 13:00:00 15.2 4 Este 14 Oeste -- -- -- 78
2020-05-04 12:00:00 15.2 5 Sudoeste 14 Sudoeste -- -- -- 63
2020-05-04 11:00:00 14.2 3 Sudoeste 13 Sudoeste -- -- -- 56
2020-05-04 10:00:00 14.5 6 Sudoeste 16 Sudoeste -- -- -- 25
2020-05-04 09:00:00 15.4 7 Oeste 17 Sudoeste -- -- -- 18
2020-05-04 08:00:00 13.5 10 Sudoeste 25 Sudoeste -- -- -- 24
2020-05-04 07:00:00 13.2 15 Sudoeste 25 Sudoeste -- -- -- 20
2020-05-04 06:00:00 12.8 12 Oeste 30 Sudoeste -- -- -- 29
2020-05-04 05:00:00 12 22 Sudoeste 32 Sudoeste -- -- -- 45
2020-05-04 04:00:00 12.5 17 Sudoeste 35 Sudoeste -- -- -- 49
2020-05-04 03:00:00 12.3 24 Sudoeste 34 Sudoeste -- -- -- 56
2020-05-04 02:00:00 12.8 22 Sudoeste 35 Sudoeste -- -- -- 53
2020-05-04 01:00:00 13.8 23 Sudoeste 30 Sudoeste -- -- -- 44
2020-05-04 00:00:00 15 22 Sudoeste 31 Sudoeste -- -- -- 20
2020-05-03 23:00:00 16 12 Sudoeste 28 Sudoeste -- -- -- 10
2020-05-03 22:00:00 16.5 13 Sudoeste 27 Oeste -- -- -- 9
2020-05-03 21:00:00 16.8 13 Sudoeste 38 Sudoeste -- -- -- 13
2020-05-03 20:00:00 18.6 17 Sudoeste 42 Sudoeste -- -- -- 17
2020-05-03 19:00:00 20.9 13 Sudoeste 46 Sudoeste -- -- -- 15
2020-05-03 18:00:00 21.7 25 Sudoeste 48 Sudoeste -- -- -- 11
2020-05-03 17:00:00 22 20 Sudoeste 46 Sudoeste -- -- -- 10
2020-05-03 16:00:00 23.3 17 Sudoeste 46 Oeste -- -- -- 10
2020-05-03 15:00:00 23 15 Oeste 44 Sudoeste -- -- -- 10
2020-05-03 14:00:00 23.1 14 Oeste 38 Sudoeste -- -- -- 10
2020-05-03 13:00:00 22.8 14 Sudoeste 34 Oeste -- -- -- 10
2020-05-03 12:00:00 22.4 14 Oeste 43 Sudoeste -- -- -- 9
2020-05-03 11:00:00 20.7 14 Sudoeste 36 Sudoeste -- -- -- 7
2020-05-03 10:00:00 19.5 17 Sudoeste 35 Oeste -- -- -- 6
2020-05-03 09:00:00 18.3 15 Sudoeste 32 Sudoeste -- -- -- 4
2020-05-03 08:00:00 17.9 18 Sudoeste 32 Sudoeste -- -- -- 3
2020-05-03 07:00:00 17.2 18 Sudoeste 35 Sudoeste -- -- -- 3
2020-05-03 06:00:00 16.8 18 Sudoeste 37 Sudoeste -- -- -- 3
2020-05-03 05:00:00 17.6 22 Sudoeste 38 Sudoeste -- -- -- 3
2020-05-03 04:00:00 17.6 21 Sudoeste 37 Sudoeste -- -- -- 3
2020-05-03 03:00:00 17.5 13 Sudoeste 27 Sudoeste -- -- -- 3
2020-05-03 02:00:00 17 7 Sudoeste 14 Oeste -- -- -- 5
2020-05-03 01:00:00 16.8 7 Sudoeste 27 Sudoeste -- -- -- 9
2020-05-03 00:00:00 17.1 14 Sudoeste 26 Sudoeste -- -- -- 21
2020-05-02 23:00:00 17.4 12 Sudoeste 25 Sudoeste -- -- -- 24
2020-05-02 22:00:00 18.3 13 Oeste 28 Oeste -- -- -- 23
2020-05-02 21:00:00 18.4 14 Sudoeste 37 Sudoeste -- -- -- 29
2020-05-02 20:00:00 20 17 Sudoeste 38 Sudoeste -- -- -- 30
2020-05-02 19:00:00 21.4 19 Sudoeste 39 Sudoeste -- -- -- 30
2020-05-02 18:00:00 23.1 13 Sudoeste 35 Sudoeste -- -- -- 25
2020-05-02 17:00:00 23.2 10 Sur 30 Oeste -- -- -- 23
2020-05-02 16:00:00 23.6 9 Sudoeste 29 Sudoeste -- -- -- 25
2020-05-02 15:00:00 23.7 8 Sudoeste 30 Sudoeste -- -- -- 27
2020-05-02 14:00:00 23.8 7 Sudeste 24 Este -- -- -- 24
2020-05-02 13:00:00 23.8 6 Sur 23 Sur -- -- -- 18
2020-05-02 12:00:00 22.9 6 Sudeste 15 Sudeste -- -- -- 13
2020-05-02 11:00:00 22.1 5 Sudoeste 18 Sur -- -- -- 12
2020-05-02 10:00:00 20.5 3 Sudoeste 8 Oeste -- -- -- 8
2020-05-02 09:00:00 18.9 0 Calma 15 Norte -- -- -- 26
2020-05-02 08:00:00 18.2 10 Norte 14 Norte -- -- -- 25
2020-05-02 07:00:00 16.1 4 Norte 10 Nordeste -- -- -- 27
2020-05-02 06:00:00 17.5 8 Norte 12 Norte -- -- -- 25
2020-05-02 05:00:00 17.2 7 Nordeste 12 Norte -- -- -- 27
2020-05-02 04:00:00 16.6 5 Nordeste 12 Norte -- -- -- 28
2020-05-02 03:00:00 16.7 8 Nordeste 12 Norte -- -- -- 30
2020-05-02 02:00:00 17 8 Nordeste 13 Nordeste -- -- -- 30
2020-05-02 01:00:00 16.6 8 Nordeste 15 Norte -- -- -- 29
2020-05-02 00:00:00 17.3 9 Nordeste 12 Nordeste -- -- -- 30
2020-05-01 23:00:00 17.5 9 Norte 16 Nordeste -- -- -- 30
2020-05-01 22:00:00 17.4 9 Nordeste 18 Nordeste -- -- -- 28
2020-05-01 21:00:00 17.3 7 Nordeste 15 Nordeste -- -- -- 29
2020-05-01 20:00:00 17 3 Nordeste 9 Norte -- -- -- 29
2020-05-01 19:00:00 20.3 2 Nordeste 8 Este -- -- -- 26
2020-05-01 18:00:00 20.4 3 Nordeste 10 Este -- -- -- 25
2020-05-01 17:00:00 20.1 2 Nordeste 12 Nordeste -- -- -- 37
2020-05-01 16:00:00 19.8 4 Nordeste 15 Este -- -- -- 46
2020-05-01 15:00:00 17.5 4 Nordeste 16 Este -- -- -- 62
2020-05-01 14:00:00 17.6 5 Nordeste 17 Este -- -- -- 51
2020-05-01 13:00:00 15.5 5 Nordeste 19 Nordeste -- -- -- 61
2020-05-01 12:00:00 15.4 4 Nordeste 15 Nordeste -- -- -- 53
2020-05-01 11:00:00 14.8 4 Nordeste 28 Nordeste -- -- -- 41
2020-05-01 10:00:00 14.2 4 Nordeste 32 Nordeste -- -- -- 40
2020-05-01 09:00:00 12.9 17 Nordeste 39 Nordeste -- -- -- 46
2020-05-01 08:00:00 11.9 28 Nordeste 43 Norte -- -- -- 45
2020-05-01 07:00:00 12 33 Nordeste 45 Norte -- -- -- 39
2020-05-01 06:00:00 11.5 14 Nordeste 34 Norte -- -- -- 34
2020-05-01 05:00:00 10.7 13 Nordeste 41 Nordeste -- -- -- 28
2020-05-01 04:00:00 11.7 13 Nordeste 48 Nordeste -- -- -- 26
2020-05-01 03:00:00 11.4 18 Este 54 Este -- -- -- 30
2020-05-01 02:00:00 11.1 11 Nordeste 51 Este -- -- -- 37
2020-05-01 01:00:00 11.2 18 Este 45 Este -- -- -- 42
2020-05-01 00:00:00 11.3 19 Este 43 Este -- -- -- 46
2020-04-30 23:00:00 11.2 13 Nordeste 38 Nordeste -- -- -- 47
2020-04-30 22:00:00 11.2 12 Nordeste 36 Nordeste -- -- -- 49
2020-04-30 21:00:00 11.5 9 Nordeste 32 Nordeste -- -- -- 46
2020-04-30 20:00:00 11.6 9 Nordeste 35 Nordeste -- -- -- 53
2020-04-30 19:00:00 13 10 Este 41 Este -- -- -- 50
2020-04-30 18:00:00 13.7 6 Nordeste 36 Este -- -- -- 48
2020-04-30 17:00:00 14.1 8 Nordeste 41 Este -- -- -- 45
2020-04-30 16:00:00 13.8 12 Este 51 Este -- -- -- 48
2020-04-30 15:00:00 13.4 14 Este 48 Este -- -- -- 55
2020-04-30 14:00:00 12.7 16 Este 50 Nordeste -- -- -- 63
2020-04-30 13:00:00 12 12 Este 50 Este -- -- -- 61
2020-04-30 12:00:00 11.2 19 Este 50 Este -- -- -- 60
2020-04-30 11:00:00 10.7 13 Este 45 Este -- -- -- 60
2020-04-30 10:00:00 10.3 27 Nordeste 42 Nordeste -- -- -- 61
2020-04-30 09:00:00 9.4 30 Nordeste 54 Nordeste -- -- -- 64
2020-04-30 08:00:00 8.5 29 Nordeste 42 Norte -- -- -- 64
2020-04-30 07:00:00 9.4 27 Norte 39 Nordeste -- -- -- 50
2020-04-30 06:00:00 8.7 6 Nordeste 32 Nordeste -- -- -- 56
2020-04-30 05:00:00 8 10 Nordeste 50 Norte -- -- -- 58
2020-04-30 04:00:00 8.3 21 Nordeste 50 Nordeste -- -- -- 55
2020-04-30 03:00:00 8 19 Nordeste 49 Nordeste -- -- -- 56
2020-04-30 02:00:00 8.6 26 Nordeste 50 Nordeste -- -- -- 54
2020-04-30 01:00:00 8.9 14 Nordeste 40 Nordeste -- -- -- 46
2020-04-30 00:00:00 9 21 Nordeste 35 Norte -- -- -- 43
2020-04-29 23:00:00 10 10 Nordeste 35 Nordeste -- -- -- 38
2020-04-29 22:00:00 9.1 10 Nordeste 39 Nordeste -- -- -- 41
2020-04-29 21:00:00 9.2 14 Nordeste 35 Nordeste -- -- -- 38
2020-04-29 20:00:00 9.6 11 Nordeste 30 Norte -- -- -- 39
2020-04-29 19:00:00 11 12 Nordeste 33 Nordeste -- -- -- 46
2020-04-29 18:00:00 11.8 3 Nordeste 15 Nordeste -- -- -- 65
2020-04-29 17:00:00 12.2 4 Nordeste 17 Este -- -- -- 67
2020-04-29 16:00:00 12.2 7 Nordeste 22 Este -- -- -- 74
2020-04-29 15:00:00 12.4 6 Nordeste 22 Este -- -- -- 69
2020-04-29 14:00:00 12.6 4 Nordeste 24 Nordeste -- -- -- 71
2020-04-29 13:00:00 11.7 5 Nordeste 19 Este -- -- -- 68
2020-04-29 12:00:00 10.9 5 Nordeste 24 Sudeste -- -- -- 80
2020-04-29 11:00:00 11.1 5 Nordeste 23 Este -- -- -- 69
2020-04-29 10:00:00 11.6 8 Nordeste 29 Nordeste -- -- -- 54
2020-04-29 09:00:00 11.1 19 Nordeste 33 Nordeste -- -- -- 41
2020-04-29 08:00:00 10.4 21 Nordeste 35 Nordeste -- -- -- 40
2020-04-29 07:00:00 9.8 9 Nordeste 36 Nordeste -- -- -- 42
2020-04-29 06:00:00 9.2 9 Nordeste 35 Nordeste -- -- -- 47
2020-04-29 05:00:00 8.5 16 Nordeste 34 Nordeste -- -- -- 48
2020-04-29 04:00:00 8.4 20 Nordeste 34 Nordeste -- -- -- 50
2020-04-29 03:00:00 8.3 15 Nordeste 30 Nordeste -- -- -- 55
2020-04-29 02:00:00 8 12 Nordeste 23 Nordeste -- -- -- 73
2020-04-29 01:00:00 7.5 4 Nordeste 34 Nordeste -- -- -- 77
2020-04-29 00:00:00 6.9 13 Nordeste 39 Norte -- -- -- 78
2020-04-28 23:00:00 9.4 15 Nordeste 39 Nordeste -- -- -- 49
2020-04-28 22:00:00 7.9 5 Nordeste 32 Nordeste -- -- -- 73
2020-04-28 21:00:00 8.6 10 Nordeste 31 Nordeste -- -- -- 73
2020-04-28 20:00:00 8.2 3 Nordeste 14 Nordeste -- -- -- 96
2020-04-28 19:00:00 10.5 2 Nordeste 10 Nordeste -- -- -- 91
2020-04-28 18:00:00 11.3 2 Nordeste 12 Este -- -- -- 87
2020-04-28 17:00:00 11.4 4 Nordeste 10 Este -- -- -- 82
2020-04-28 16:00:00 13.3 5 Norte 13 Nordeste -- -- -- 78
2020-04-28 15:00:00 15.8 4 Nordeste 12 Este -- -- -- 68
2020-04-28 14:00:00 15.2 3 Nordeste 18 Oeste -- -- -- 65
2020-04-28 13:00:00 12.9 9 Sudoeste 18 Sudoeste -- -- -- 65
2020-04-28 12:00:00 11.7 6 Sudoeste 12 Sudoeste -- -- -- 72
2020-04-28 11:00:00 10.1 5 Sudoeste 14 Norte -- -- -- 76
2020-04-28 10:00:00 9.3 3 Noroeste 17 Oeste -- -- -- 82
2020-04-28 09:00:00 7.3 5 Sudoeste 15 Sudoeste -- -- -- 94
2020-04-28 08:00:00 7.1 9 Sudoeste 16 Sudoeste -- -- -- 95
2020-04-28 07:00:00 6.9 7 Sudoeste 21 Sudoeste -- -- -- 91
2020-04-28 06:00:00 6.9 13 Sudoeste 22 Oeste -- -- -- 93
2020-04-28 05:00:00 7.2 6 Sudoeste 18 Sudoeste -- -- -- 92
2020-04-28 04:00:00 7.4 9 Sudoeste 18 Sudoeste -- -- -- 93
2020-04-28 03:00:00 7.7 9 Sudoeste 15 Sudoeste -- -- -- 93
2020-04-28 02:00:00 8 7 Sudoeste 12 Sudoeste -- -- -- 93
2020-04-28 01:00:00 8.1 2 Sur 12 Oeste -- -- -- 94
2020-04-28 00:00:00 8.8 0 Calma 10 Sudoeste -- -- -- 94